Time;durP1;ratioP1;P1;durP2;ratioP2;P2;SDS_P1;SDS_P2;PMS_P1;PMS_P2;Temp;Humidity;BMP_temperature;BMP_pressure;BME280_temperature;BME280_humidity;BME280_pressure;Samples;Min_cycle;Max_cycle;Signal;HPM_P1;HPM_P2
2023/03/18 00:01:18;;;;;;;26.50;12.50;;;;;;;-143.48;80.33;118439.88;5050340;28;20408;-68
2023/03/18 00:03:44;;;;;;;22.40;11.68;;;;;;;-143.48;80.89;118439.88;5048976;28;20479;-68
2023/03/18 00:06:15;;;;;;;23.13;12.45;;;;;;;-143.48;80.89;118439.88;5050117;28;20389;-68
2023/03/18 00:08:42;;;;;;;23.85;11.75;;;;;;;-143.48;81.20;118439.88;5049955;28;20418;-68
2023/03/18 00:11:10;;;;;;;22.80;11.60;;;;;;;-143.48;81.05;118439.88;5050204;28;20031;-68
2023/03/18 00:13:35;;;;;;;19.92;11.18;;;;;;;-143.48;81.81;118439.88;5050491;28;20217;-68
2023/03/18 00:16:03;;;;;;;21.23;11.73;;;;;;;-143.48;81.73;118439.88;5051274;28;20362;-68
2023/03/18 00:18:28;;;;;;;21.08;11.18;;;;;;;-143.48;81.42;118439.88;5051702;28;20028;-67
2023/03/18 00:20:54;;;;;;;21.10;12.00;;;;;;;-143.48;81.34;118439.88;5051897;28;20029;-68
2023/03/18 00:23:21;;;;;;;22.17;11.32;;;;;;;-143.48;81.71;118439.88;5052497;28;20381;-68
2023/03/18 00:25:47;;;;;;;20.35;11.85;;;;;;;-143.48;81.63;118439.88;5053200;28;20444;-68
2023/03/18 00:28:13;;;;;;;23.58;11.77;;;;;;;-143.48;81.29;118439.88;5052281;28;20079;-68
2023/03/18 00:30:40;;;;;;;21.60;11.35;;;;;;;-143.48;81.22;118439.88;5053295;28;20029;-69
2023/03/18 00:33:06;;;;;;;21.27;11.35;;;;;;;-143.48;81.86;118439.88;5053361;28;20464;-69
2023/03/18 00:35:32;;;;;;;22.75;12.13;;;;;;;-143.48;81.33;118439.88;5052062;28;20028;-66
2023/03/18 00:37:57;;;;;;;21.35;12.07;;;;;;;-143.48;81.27;118439.88;5051906;28;20013;-68
2023/03/18 00:40:29;;;;;;;23.23;12.30;;;;;;;-143.48;81.84;118439.88;5050776;28;20032;-68
2023/03/18 00:43:06;;;;;;;21.65;13.05;;;;;;;-143.48;81.44;118439.88;5052043;28;20021;-68
2023/03/18 00:45:33;;;;;;;27.77;12.32;;;;;;;-143.48;81.05;118439.88;5052122;28;20432;-68
2023/03/18 00:47:58;;;;;;;20.83;12.00;;;;;;;-143.48;81.73;118439.88;5051970;28;20491;-68
2023/03/18 00:50:23;;;;;;;18.98;11.88;;;;;;;-143.48;82.02;118439.88;5053321;28;20021;-67
2023/03/18 00:52:48;;;;;;;21.15;12.77;;;;;;;-143.48;81.79;118439.88;5053136;28;20021;-68
2023/03/18 00:55:14;;;;;;;25.45;12.82;;;;;;;-143.48;81.27;118439.88;5052897;28;20412;-68
2023/03/18 00:57:40;;;;;;;22.50;12.80;;;;;;;-143.48;82.48;118439.88;5051554;28;20472;-69
2023/03/18 01:00:06;;;;;;;25.13;12.80;;;;;;;-143.48;81.95;118439.88;5050073;28;20476;-68
2023/03/18 01:02:31;;;;;;;21.13;12.30;;;;;;;-143.48;82.27;118439.88;5051577;28;20505;-69
2023/03/18 01:04:57;;;;;;;22.75;12.13;;;;;;;-143.48;82.50;118439.88;5049991;28;20024;-67
2023/03/18 01:07:23;;;;;;;23.05;12.88;;;;;;;-143.48;82.36;118439.88;5051425;28;20429;-69
2023/03/18 01:09:48;;;;;;;22.52;13.05;;;;;;;-143.48;82.72;118439.88;5051172;28;20051;-68
2023/03/18 01:12:14;;;;;;;23.42;12.75;;;;;;;-143.48;83.12;118439.88;5051477;28;20017;-68
2023/03/18 01:14:40;;;;;;;20.45;12.18;;;;;;;-143.48;83.25;118439.88;5051523;28;20021;-68
2023/03/18 01:17:08;;;;;;;22.02;12.70;;;;;;;-143.48;82.87;118439.88;5051575;28;20025;-68
2023/03/18 01:19:34;;;;;;;23.63;13.18;;;;;;;-143.48;82.85;118439.88;5055256;28;20039;-68
2023/03/18 01:22:01;;;;;;;22.73;12.95;;;;;;;-143.48;82.97;118439.88;5056650;28;20021;-68
2023/03/18 01:24:27;;;;;;;21.05;12.68;;;;;;;-143.48;83.48;118439.88;5055207;28;20028;-67
2023/03/18 01:26:53;;;;;;;26.20;13.20;;;;;;;-143.48;83.65;118439.88;5056473;28;20476;-70
2023/03/18 01:29:19;;;;;;;24.10;12.80;;;;;;;-143.48;83.67;118439.88;5055081;28;20028;-68
2023/03/18 01:31:45;;;;;;;27.27;13.60;;;;;;;-143.48;82.41;118439.88;5056490;28;20025;-68
2023/03/18 01:34:11;;;;;;;26.13;13.15;;;;;;;-143.48;82.28;118439.88;5055256;28;20025;-69
2023/03/18 01:36:36;;;;;;;19.40;12.70;;;;;;;-143.48;82.76;118439.88;5056514;28;20051;-69
2023/03/18 01:39:02;;;;;;;21.52;12.77;;;;;;;-143.48;83.02;118439.88;5055796;28;20420;-68
2023/03/18 01:41:27;;;;;;;22.17;12.63;;;;;;;-143.48;83.16;118439.88;5054112;28;20086;-69
2023/03/18 01:43:54;;;;;;;21.98;12.57;;;;;;;-143.48;82.67;118439.88;5053247;28;20060;-69
2023/03/18 01:46:43;;;;;;;24.45;12.57;;;;;;;-143.48;82.33;118439.88;5054706;28;20028;-68
2023/03/18 01:49:23;;;;;;;21.02;12.20;;;;;;;-143.48;82.52;118439.88;5054284;28;20025;-68
2023/03/18 01:51:58;;;;;;;25.35;12.57;;;;;;;-143.48;82.33;118439.88;5053196;28;20076;-68
2023/03/18 01:54:25;;;;;;;20.30;12.43;;;;;;;-143.48;82.47;118439.88;5053281;28;20032;-69
2023/03/18 01:56:52;;;;;;;23.20;12.82;;;;;;;-143.48;82.18;118439.88;5054544;28;20021;-69
2023/03/18 01:59:20;;;;;;;20.80;12.07;;;;;;;-143.48;83.23;118439.88;5054387;28;20021;-68
2023/03/18 02:01:53;;;;;;;21.70;12.48;;;;;;;-143.48;83.15;118439.88;5054932;28;20128;-68
2023/03/18 02:04:20;;;;;;;;;;;;;;;-143.48;83.86;118439.88;5055158;28;20435;-67
2023/03/18 02:06:46;;;;;;;19.08;12.07;;;;;;;-143.48;84.13;118439.88;5056131;28;19909;-69
2023/03/18 02:09:12;;;;;;;21.33;12.40;;;;;;;-143.48;84.73;118439.88;5056119;28;20029;-68
2023/03/18 02:11:42;;;;;;;21.17;13.00;;;;;;;-143.48;85.37;118439.88;5055789;28;20476;-68
2023/03/18 02:14:10;;;;;;;20.38;12.77;;;;;;;-143.48;84.82;118439.88;5057756;28;20024;-68
2023/03/18 02:17:05;;;;;;;24.10;12.73;;;;;;;-143.48;84.80;118439.88;5061754;28;20027;-68
2023/03/18 02:19:49;;;;;;;21.60;12.60;;;;;;;-143.48;85.31;118439.88;5054051;28;20044;-68
2023/03/18 02:22:52;;;;;;;25.33;13.23;;;;;;;-143.48;85.53;118439.88;5054319;28;20056;-68
2023/03/18 02:25:36;;;;;;;23.25;12.77;;;;;;;-143.48;85.40;118439.88;5048308;28;20048;-68
2023/03/18 02:28:06;;;;;;;21.63;12.85;;;;;;;-143.48;85.06;118439.88;5055821;28;20377;-68
2023/03/18 02:30:37;;;;;;;20.27;12.38;;;;;;;-143.48;85.48;118439.88;5055001;28;20429;-68
2023/03/18 02:33:05;;;;;;;21.65;12.55;;;;;;;-143.48;85.41;118439.88;5054069;28;20041;-68
2023/03/18 02:35:31;;;;;;;23.02;13.00;;;;;;;-143.48;85.55;118439.88;5055180;28;20104;-67
2023/03/18 02:37:56;;;;;;;22.45;12.85;;;;;;;-143.48;85.67;118439.88;5054335;28;20017;-68
2023/03/18 02:40:26;;;;;;;20.17;12.82;;;;;;;-143.48;85.47;118439.88;5055275;28;20033;-67
2023/03/18 02:42:52;;;;;;;20.95;13.05;;;;;;;-143.48;85.76;118439.88;5055323;28;20024;-68
2023/03/18 02:45:37;;;;;;;23.45;12.88;;;;;;;-143.48;85.59;118439.88;5055108;28;20028;-67
2023/03/18 02:48:04;;;;;;;24.60;13.63;;;;;;;-143.48;86.14;118439.88;5055039;28;20485;-67
2023/03/18 02:50:29;;;;;;;24.20;13.35;;;;;;;-143.48;86.06;118439.88;5054999;28;20025;-68
2023/03/18 02:52:55;;;;;;;25.60;13.63;;;;;;;-143.48;86.27;118439.88;5054997;28;20032;-69
2023/03/18 02:55:21;;;;;;;26.10;13.82;;;;;;;-143.48;86.19;118439.88;5053587;28;20107;-68
2023/03/18 02:57:46;;;;;;;20.48;12.63;;;;;;;-143.48;86.48;118439.88;5054841;28;20053;-68
2023/03/18 03:00:12;;;;;;;21.88;13.00;;;;;;;-143.48;86.15;118439.88;5053607;28;20029;-69
2023/03/18 03:02:37;;;;;;;23.50;13.65;;;;;;;-143.48;86.32;118439.88;5054894;28;20052;-69
2023/03/18 03:05:03;;;;;;;21.52;13.20;;;;;;;-143.48;86.46;118439.88;5055209;28;20021;-70
2023/03/18 03:07:29;;;;;;;32.05;14.40;;;;;;;-143.48;85.99;118439.88;5054979;28;20502;-68
2023/03/18 03:09:54;;;;;;;26.65;14.07;;;;;;;-143.48;85.43;118439.88;5054754;28;20365;-68
2023/03/18 03:12:19;;;;;;;21.90;13.68;;;;;;;-143.48;86.06;118439.88;5053834;28;20072;-69
2023/03/18 03:14:45;;;;;;;23.73;13.50;;;;;;;-143.48;86.12;118439.88;5055291;28;20028;-68
2023/03/18 03:17:11;;;;;;;20.38;13.57;;;;;;;-143.48;85.74;118439.88;5054952;28;20024;-69
2023/03/18 03:19:37;;;;;;;21.20;13.20;;;;;;;-143.48;86.19;118439.88;5053773;28;20103;-68
2023/03/18 03:22:02;;;;;;;28.77;14.02;;;;;;;-143.48;85.56;118439.88;5053893;28;20079;-68
2023/03/18 03:24:27;;;;;;;24.42;14.60;;;;;;;-143.48;85.52;118439.88;5054175;28;20025;-68
2023/03/18 03:26:53;;;;;;;27.17;14.80;;;;;;;-143.48;85.52;118439.88;5055044;28;20032;-68
2023/03/18 03:29:19;;;;;;;26.35;15.00;;;;;;;-143.48;86.13;118439.88;5053500;28;20133;-67
2023/03/18 03:31:45;;;;;;;24.05;14.20;;;;;;;-143.48;85.88;118439.88;5055480;28;20024;-69
2023/03/18 03:34:10;;;;;;;25.10;14.55;;;;;;;-143.48;86.11;118439.88;5059387;28;20028;-68
2023/03/18 03:36:36;;;;;;;30.05;15.20;;;;;;;-143.48;86.05;118439.88;5061842;28;20036;-68
2023/03/18 03:39:03;;;;;;;23.05;14.55;;;;;;;-143.48;86.05;118439.88;5062453;28;20029;-67
2023/03/18 03:41:28;;;;;;;25.90;15.05;;;;;;;-143.48;86.06;118439.88;5066766;28;20025;-69
2023/03/18 03:43:53;;;;;;;25.83;14.82;;;;;;;-143.48;86.16;118439.88;5072644;28;20005;-69
2023/03/18 03:46:19;;;;;;;27.10;15.50;;;;;;;-143.48;85.61;118439.88;5072573;28;20021;-69
2023/03/18 03:48:44;;;;;;;28.17;16.02;;;;;;;-143.48;85.87;118439.88;5072825;28;20059;-67
2023/03/18 03:51:09;;;;;;;26.52;14.65;;;;;;;-143.48;86.12;118439.88;5073527;28;20036;-67
2023/03/18 03:53:35;;;;;;;26.90;15.68;;;;;;;-143.48;85.73;118439.88;5073514;28;20039;-68
2023/03/18 03:56:01;;;;;;;25.50;15.73;;;;;;;-143.48;85.81;118439.88;5074428;28;20076;-68
2023/03/18 03:58:27;;;;;;;26.73;15.75;;;;;;;-143.48;86.37;118439.88;5074343;28;20021;-70
2023/03/18 04:00:53;;;;;;;31.67;16.10;;;;;;;-143.48;86.21;118439.88;5074070;28;20101;-68
2023/03/18 04:03:18;;;;;;;25.55;15.80;;;;;;;-143.48;86.42;118439.88;5074775;28;20009;-68
2023/03/18 04:05:43;;;;;;;25.50;16.15;;;;;;;-143.48;86.75;118439.88;5074007;28;20032;-68
2023/03/18 04:08:09;;;;;;;28.80;15.38;;;;;;;-143.48;86.77;118439.88;5076677;28;20035;-68
2023/03/18 04:10:35;;;;;;;26.70;16.02;;;;;;;-143.48;86.87;118439.88;5076687;28;20040;-68
2023/03/18 04:13:02;;;;;;;29.02;15.73;;;;;;;-143.48;87.04;118439.88;5077464;28;20025;-68
2023/03/18 04:15:27;;;;;;;27.60;15.50;;;;;;;-143.48;87.23;118439.88;5076242;28;20037;-69
2023/03/18 04:17:53;;;;;;;26.98;15.60;;;;;;;-143.48;87.26;118439.88;5076986;28;20017;-68
2023/03/18 04:20:19;;;;;;;30.23;16.08;;;;;;;-143.48;87.70;118439.88;5075693;28;20084;-68
2023/03/18 04:22:45;;;;;;;26.02;15.90;;;;;;;-143.48;88.35;118439.88;5077074;28;20076;-69
2023/03/18 04:25:11;;;;;;;28.92;16.10;;;;;;;-143.48;88.27;118439.88;5073946;28;20082;-68
2023/03/18 04:27:37;;;;;;;32.28;15.93;;;;;;;-143.48;88.07;118439.88;5058679;28;20357;-68
2023/03/18 04:30:05;;;;;;;26.35;16.17;;;;;;;-143.48;88.52;118439.88;5057597;28;20148;-68
2023/03/18 04:32:31;;;;;;;26.85;16.25;;;;;;;-143.48;88.93;118439.88;5057029;28;20094;-68
2023/03/18 04:34:56;;;;;;;29.80;15.90;;;;;;;-143.48;89.23;118439.88;5057348;28;20021;-67
2023/03/18 04:37:22;;;;;;;28.48;15.38;;;;;;;-143.48;89.48;118439.88;5057046;28;20464;-68
2023/03/18 04:39:48;;;;;;;26.67;14.93;;;;;;;-143.48;89.42;118439.88;5054906;28;20017;-68
2023/03/18 04:42:15;;;;;;;28.90;15.63;;;;;;;-143.48;89.77;118439.88;5055963;28;20025;-68
2023/03/18 04:44:40;;;;;;;27.92;15.30;;;;;;;-143.48;90.12;118439.88;5054645;28;20373;-67
2023/03/18 04:47:06;;;;;;;33.63;15.80;;;;;;;-143.48;89.91;118439.88;5054408;28;20036;-67
2023/03/18 04:49:33;;;;;;;23.70;15.07;;;;;;;-143.48;90.23;118439.88;5054956;28;20028;-68
2023/03/18 04:51:59;;;;;;;29.60;14.27;;;;;;;-143.48;90.14;118439.88;5053617;28;20025;-68
2023/03/18 04:54:24;;;;;;;28.75;14.93;;;;;;;-143.48;90.33;118439.88;5057038;28;20025;-68
2023/03/18 04:56:49;;;;;;;29.27;15.65;;;;;;;-143.48;90.54;118439.88;5058095;28;20056;-68
2023/03/18 04:59:14;;;;;;;27.77;15.32;;;;;;;-143.48;90.38;118439.88;5056407;28;20120;-68
2023/03/18 05:01:40;;;;;;;26.48;14.55;;;;;;;-143.48;90.84;118439.88;5057302;28;20488;-69
2023/03/18 05:04:05;;;;;;;25.70;14.82;;;;;;;-143.48;90.62;118439.88;5057537;28;20031;-68
2023/03/18 05:06:32;;;;;;;27.92;15.55;;;;;;;-143.48;91.07;118439.88;5056054;28;20487;-68
2023/03/18 05:08:59;;;;;;;24.52;14.20;;;;;;;-143.48;91.05;118439.88;5055858;28;20024;-68
2023/03/18 05:11:26;;;;;;;28.00;15.25;;;;;;;-143.48;91.23;118439.88;5055850;28;20028;-68
2023/03/18 05:13:51;;;;;;;26.67;15.20;;;;;;;-143.48;91.41;118439.88;5057158;28;20175;-67
2023/03/18 05:16:17;;;;;;;24.55;14.98;;;;;;;-143.48;91.70;118439.88;5056834;28;20029;-67
2023/03/18 05:18:43;;;;;;;25.63;14.35;;;;;;;-143.48;92.13;118439.88;5055877;28;20105;-69
2023/03/18 05:21:09;;;;;;;27.83;14.57;;;;;;;-143.48;92.13;118439.88;5056799;28;20029;-68
2023/03/18 05:23:35;;;;;;;31.02;15.23;;;;;;;-143.48;91.59;118439.88;5055458;28;20070;-67
2023/03/18 05:26:00;;;;;;;25.00;15.13;;;;;;;-143.48;92.16;118439.88;5056822;28;20440;-68
2023/03/18 05:28:26;;;;;;;24.20;15.30;;;;;;;-143.48;91.80;118439.88;5055389;28;20056;-68
2023/03/18 05:30:51;;;;;;;25.38;15.20;;;;;;;-143.48;92.35;118439.88;5056867;28;20047;-67
2023/03/18 05:33:18;;;;;;;29.95;15.88;;;;;;;-143.48;92.13;118439.88;5056727;28;20033;-68
2023/03/18 05:35:43;;;;;;;24.50;14.85;;;;;;;-143.48;92.24;118439.88;5056519;28;20024;-68
2023/03/18 05:38:09;;;;;;;31.08;15.32;;;;;;;-143.48;92.66;118439.88;5056454;28;20431;-68
2023/03/18 05:40:34;;;;;;;28.83;15.30;;;;;;;-143.48;93.37;118439.88;5055289;28;20123;-67
2023/03/18 05:43:00;;;;;;;26.80;15.00;;;;;;;-143.48;92.91;118439.88;5055023;28;20021;-68
2023/03/18 05:45:26;;;;;;;26.02;15.05;;;;;;;-143.48;93.77;118439.88;5056289;28;20025;-68
2023/03/18 05:47:51;;;;;;;29.05;15.60;;;;;;;-143.48;93.89;118439.88;5056497;28;20065;-68
2023/03/18 05:50:28;;;;;;;26.42;14.95;;;;;;;-143.48;94.56;118439.88;5056249;28;20111;-68
2023/03/18 05:52:54;;;;;;;22.52;14.55;;;;;;;-143.48;95.41;118439.88;5056239;28;20108;-68
2023/03/18 05:55:19;;;;;;;25.33;14.98;;;;;;;-143.48;95.96;118439.88;5056137;28;20052;-68
2023/03/18 05:57:47;;;;;;;24.67;14.73;;;;;;;-143.48;95.84;118439.88;5056229;28;20025;-69
2023/03/18 06:00:14;;;;;;;21.02;14.13;;;;;;;-143.48;95.93;118439.88;5056044;28;20032;-69
2023/03/18 06:02:39;;;;;;;24.35;14.98;;;;;;;-143.48;95.73;118439.88;5055866;28;20033;-68
2023/03/18 06:05:05;;;;;;;27.05;15.18;;;;;;;-143.48;96.79;118439.88;5055964;28;20052;-68
2023/03/18 06:07:30;;;;;;;24.00;13.98;;;;;;;-143.48;96.88;118439.88;5055943;28;20024;-68
2023/03/18 06:09:56;;;;;;;23.45;14.93;;;;;;;-143.48;96.73;118439.88;5055581;28;20023;-67
2023/03/18 06:12:26;;;;;;;22.70;14.48;;;;;;;-143.48;97.34;118439.88;5055914;28;20029;-68
2023/03/18 06:14:51;;;;;;;30.98;15.00;;;;;;;-143.48;97.76;118439.88;5055630;28;20033;-68
2023/03/18 06:17:16;;;;;;;21.08;13.77;;;;;;;-143.48;98.10;118439.88;5055661;28;20476;-67
2023/03/18 06:19:43;;;;;;;25.48;14.52;;;;;;;-143.48;98.46;118439.88;5055661;28;20029;-68
2023/03/18 06:22:09;;;;;;;26.88;14.48;;;;;;;-143.48;98.76;118439.88;5054322;28;20369;-68
2023/03/18 06:24:34;;;;;;;26.10;14.18;;;;;;;-143.48;98.53;118439.88;5055731;28;20083;-67
2023/03/18 06:27:00;;;;;;;21.80;14.07;;;;;;;-143.48;98.58;118439.88;5055520;28;20025;-67
2023/03/18 06:29:25;;;;;;;26.73;14.70;;;;;;;-143.48;98.94;118439.88;5054565;28;20102;-68
2023/03/18 06:31:51;;;;;;;25.88;14.60;;;;;;;-143.48;98.98;118439.88;5067750;28;20099;-68
2023/03/18 06:34:16;;;;;;;25.40;14.77;;;;;;;-143.48;98.73;118439.88;5055342;28;20048;-68
2023/03/18 06:36:42;;;;;;;28.55;15.07;;;;;;;-143.48;99.09;118439.88;5055505;28;20025;-67
2023/03/18 06:39:07;;;;;;;25.50;14.48;;;;;;;-143.48;99.07;118439.88;5055503;28;20104;-68
2023/03/18 06:41:32;;;;;;;24.42;14.70;;;;;;;-143.48;99.04;118439.88;5054146;28;20048;-68
2023/03/18 06:43:58;;;;;;;29.15;14.88;;;;;;;-143.48;98.96;118439.88;5054187;28;20035;-68
2023/03/18 06:46:24;;;;;;;24.08;14.75;;;;;;;-143.48;98.85;118439.88;5055416;28;20365;-68
2023/03/18 06:48:49;;;;;;;25.80;14.63;;;;;;;-143.48;98.76;118439.88;5054890;28;20100;-68
2023/03/18 06:51:15;;;;;;;26.25;14.93;;;;;;;-143.48;98.64;118439.88;5056748;28;20134;-68
2023/03/18 06:53:40;;;;;;;25.92;14.55;;;;;;;-143.48;98.84;118439.88;5055425;28;20031;-67
2023/03/18 06:56:06;;;;;;;22.90;14.52;;;;;;;-143.48;97.99;118439.88;5059946;28;20052;-67
2023/03/18 06:58:32;;;;;;;27.92;15.30;;;;;;;-143.48;97.65;118439.88;5058043;28;20032;-67
2023/03/18 07:00:57;;;;;;;26.10;14.90;;;;;;;-143.48;96.94;118439.88;5057280;28;20049;-68
2023/03/18 07:03:24;;;;;;;26.92;14.27;;;;;;;-143.48;96.83;118439.88;5055942;28;20025;-68
2023/03/18 07:05:50;;;;;;;28.17;14.23;;;;;;;-143.48;96.33;118439.88;5056474;28;20077;-69
2023/03/18 07:08:15;;;;;;;24.08;14.25;;;;;;;-143.48;96.44;118439.88;5056334;28;20100;-67
2023/03/18 07:10:41;;;;;;;25.42;15.10;;;;;;;-143.48;96.93;118439.88;5055269;28;20056;-67
2023/03/18 07:13:09;;;;;;;24.15;14.60;;;;;;;-143.48;96.34;118439.88;5070423;28;20392;-68
2023/03/18 07:15:34;;;;;;;23.65;14.63;;;;;;;-143.48;96.80;118439.88;5069738;28;20043;-69
2023/03/18 07:18:02;;;;;;;26.65;14.57;;;;;;;-143.48;96.91;118439.88;5098878;22;20035;-29
2023/03/18 07:20:28;;;;;;;21.40;14.30;;;;;;;-143.48;96.21;118439.88;5115076;28;20088;-29
2023/03/18 07:22:54;;;;;;;24.75;14.27;;;;;;;-143.48;95.66;118439.88;5114913;28;20023;-29
2023/03/18 07:25:19;;;;;;;24.23;13.88;;;;;;;-143.48;94.98;118439.88;5114700;28;20461;-28
2023/03/18 07:27:45;;;;;;;24.83;13.65;;;;;;;-143.48;94.08;118439.88;5114527;28;20108;-28
2023/03/18 07:30:12;;;;;;;20.98;13.65;;;;;;;-143.48;93.55;118439.88;5114719;28;20110;-28
2023/03/18 07:32:37;;;;;;;23.65;13.68;;;;;;;-143.48;93.35;118439.88;5114802;28;20112;-28
2023/03/18 07:35:04;;;;;;;21.08;13.45;;;;;;;-143.48;92.72;118439.88;5113927;28;20031;-29
2023/03/18 07:37:31;;;;;;;21.52;13.75;;;;;;;-143.48;89.90;118439.88;5114333;28;20031;-28
2023/03/18 07:39:56;;;;;;;22.90;13.43;;;;;;;-143.48;91.65;118439.88;5114712;28;20022;-29
2023/03/18 07:42:21;;;;;;;23.08;13.77;;;;;;;-143.48;93.35;118439.88;5114950;28;20027;-28
2023/03/18 07:44:47;;;;;;;24.08;13.38;;;;;;;-143.48;93.13;118439.88;5114254;28;20130;-29
2023/03/18 07:47:15;;;;;;;24.52;13.65;;;;;;;-143.48;92.95;118439.88;5112577;28;20027;-29
2023/03/18 07:49:42;;;;;;;23.85;13.68;;;;;;;-143.48;92.28;118439.88;5094781;28;20373;-29
2023/03/18 07:52:08;;;;;;;22.20;13.82;;;;;;;-143.48;91.84;118439.88;5112239;28;20509;-29
2023/03/18 07:54:34;;;;;;;28.98;14.73;;;;;;;-143.48;92.48;118439.88;5113551;28;20089;-32
2023/03/18 07:57:00;;;;;;;22.67;14.35;;;;;;;-143.48;91.54;118439.88;5113368;28;20023;-28
2023/03/18 07:59:26;;;;;;;23.38;13.73;;;;;;;-143.48;91.38;118439.88;5113218;28;20026;-29
2023/03/18 08:01:51;;;;;;;22.65;14.05;;;;;;;-143.48;89.91;118439.88;5114176;28;20023;-29
2023/03/18 08:04:16;;;;;;;22.63;13.77;;;;;;;-143.48;81.71;118439.88;5114362;28;20019;-29
2023/03/18 08:06:42;;;;;;;23.42;12.57;;;;;;;-143.48;83.57;118439.88;5113458;28;20054;-28
2023/03/18 08:09:07;;;;;;;22.75;13.20;;;;;;;-143.48;80.49;118439.88;5114002;28;20069;-30
2023/03/18 08:11:33;;;;;;;20.33;11.70;;;;;;;-143.48;70.04;118439.88;5114144;28;20037;-29
2023/03/18 08:13:58;;;;;;;17.38;10.73;;;;;;;-143.48;66.97;118439.88;5114174;28;20019;-30
2023/03/18 08:16:24;;;;;;;16.10;10.60;;;;;;;-143.48;69.36;118439.88;5095690;28;20053;-29
2023/03/18 08:18:50;;;;;;;18.80;10.15;;;;;;;-143.48;67.42;118439.88;5113763;28;20067;-29
2023/03/18 08:21:15;;;;;;;14.10;9.88;;;;;;;-143.48;66.28;118439.88;5094472;28;20114;-29
2023/03/18 08:23:41;;;;;;;15.20;9.00;;;;;;;-143.48;59.48;118439.88;5113878;28;20055;-29
2023/03/18 08:26:06;;;;;;;14.32;9.32;;;;;;;-143.48;57.86;118439.88;5113080;28;20036;-29
2023/03/18 08:28:32;;;;;;;14.45;9.70;;;;;;;-143.48;68.10;118439.88;5111578;28;20163;-29
2023/03/18 08:30:58;;;;;;;16.48;9.82;;;;;;;-143.48;65.02;118439.88;5113744;28;20029;-29
2023/03/18 08:33:26;;;;;;;14.57;10.05;;;;;;;-143.48;66.70;118439.88;5113823;28;20382;-29
2023/03/18 08:35:53;;;;;;;15.82;9.57;;;;;;;-143.48;57.47;118439.88;5113737;28;20027;-29
2023/03/18 08:38:18;;;;;;;14.52;9.32;;;;;;;-143.48;53.61;118439.88;5113822;28;20359;-29
2023/03/18 08:40:45;;;;;;;14.07;8.80;;;;;;;-143.48;52.12;118439.88;5113635;28;20202;-29
2023/03/18 08:43:10;;;;;;;13.13;9.30;;;;;;;-143.48;54.85;118439.88;5113654;28;20470;-29
2023/03/18 08:45:36;;;;;;;12.68;8.30;;;;;;;-143.48;50.66;118439.88;5113918;28;20089;-29
2023/03/18 08:48:01;;;;;;;12.10;8.73;;;;;;;-143.48;50.98;118439.88;5113958;28;20034;-29
2023/03/18 08:50:28;;;;;;;13.68;7.95;;;;;;;-143.48;47.69;118439.88;5113357;28;20492;-29
2023/03/18 08:52:58;;;;;;;12.02;8.10;;;;;;;-143.48;46.92;118439.88;5113693;28;20031;-30
2023/03/18 08:55:30;;;;;;;12.82;7.80;;;;;;;-143.48;45.48;118439.88;5113627;28;20354;-29
2023/03/18 08:57:55;;;;;;;11.32;7.57;;;;;;;-143.48;45.97;118439.88;5113558;28;20025;-29
2023/03/18 09:00:21;;;;;;;9.70;6.75;;;;;;;-143.48;43.35;118439.88;5113448;28;20106;-29
2023/03/18 09:02:47;;;;;;;10.93;6.40;;;;;;;-143.48;45.98;118439.88;5113769;28;20027;-29
2023/03/18 09:05:12;;;;;;;9.27;6.55;;;;;;;-143.48;46.24;118439.88;5113558;28;20023;-29
2023/03/18 09:07:38;;;;;;;9.25;6.32;;;;;;;-143.48;44.33;118439.88;5113591;28;20016;-29
2023/03/18 09:10:05;;;;;;;9.25;5.93;;;;;;;-143.48;41.85;118439.88;5113394;28;20020;-29
2023/03/18 09:12:30;;;;;;;9.20;5.90;;;;;;;-143.48;42.72;118439.88;5113301;28;20035;-29
2023/03/18 09:14:56;;;;;;;11.82;6.00;;;;;;;-143.48;42.02;118439.88;5113321;28;20377;-30
2023/03/18 09:17:22;;;;;;;8.77;5.25;;;;;;;-143.48;43.76;118439.88;5113328;28;20015;-29
2023/03/18 09:19:47;;;;;;;9.80;5.70;;;;;;;-143.48;43.23;118439.88;5113186;28;20478;-29
2023/03/18 09:22:13;;;;;;;11.77;6.00;;;;;;;-143.48;50.07;118439.88;5112859;28;20110;-29
2023/03/18 09:24:38;;;;;;;9.25;6.30;;;;;;;-143.48;46.35;118439.88;5112921;28;20020;-29
2023/03/18 09:27:03;;;;;;;11.73;6.88;;;;;;;-143.48;50.09;118439.88;5112748;28;20386;-29
2023/03/18 09:29:29;;;;;;;10.95;6.97;;;;;;;-143.48;46.12;118439.88;5113010;28;20020;-29
2023/03/18 09:31:55;;;;;;;10.77;6.40;;;;;;;-143.48;46.59;118439.88;5112794;28;20051;-29
2023/03/18 09:34:20;;;;;;;11.20;6.93;;;;;;;-143.48;45.23;118439.88;5113010;28;20026;-29
2023/03/18 09:36:49;;;;;;;12.95;7.22;;;;;;;-143.48;44.84;118439.88;5113014;28;20046;-29
2023/03/18 09:39:19;;;;;;;10.40;6.95;;;;;;;-143.48;43.23;118439.88;5113214;28;20361;-29
2023/03/18 09:42:02;;;;;;;11.18;7.00;;;;;;;-143.48;44.66;118439.88;5116493;28;20047;-29
2023/03/18 09:44:34;;;;;;;11.18;6.82;;;;;;;-143.48;43.02;118439.88;5116076;28;20507;-29
2023/03/18 09:47:46;;;;;;;11.13;6.78;;;;;;;-143.48;43.21;118439.88;5116267;28;20466;-30
2023/03/18 09:50:35;;;;;;;10.77;6.28;;;;;;;-143.48;44.45;118439.88;5097558;28;20016;-30
2023/03/18 09:53:12;;;;;;;10.85;6.47;;;;;;;-143.48;46.54;118439.88;5097814;28;20385;-29
2023/03/18 09:55:45;;;;;;;10.75;6.25;;;;;;;-143.48;48.55;118439.88;5116247;28;20023;-29
2023/03/18 09:58:26;;;;;;;9.30;6.30;;;;;;;-143.48;54.96;118439.88;5116340;28;20023;-29
2023/03/18 10:00:58;;;;;;;11.45;7.65;;;;;;;-143.48;57.08;118439.88;5116036;28;20023;-29
2023/03/18 10:03:27;;;;;;;16.97;8.63;;;;;;;-143.48;55.46;118439.88;5116057;28;20028;-30
2023/03/18 10:06:01;;;;;;;10.35;7.97;;;;;;;-143.48;56.71;118439.88;5116233;28;20134;-29
2023/03/18 10:08:45;;;;;;;11.45;8.00;;;;;;;-143.48;52.01;118439.88;5115544;28;20028;-30
2023/03/18 10:11:20;;;;;;;15.10;8.63;;;;;;;-143.48;52.44;118439.88;5115709;28;20081;-29
2023/03/18 10:14:14;;;;;;;13.98;8.45;;;;;;;-143.48;53.35;118439.88;5116002;28;20469;-30
2023/03/18 10:17:01;;;;;;;13.82;8.32;;;;;;;-143.48;55.06;118439.88;5116097;28;20404;-30
2023/03/18 10:19:27;;;;;;;11.93;8.00;;;;;;;-143.48;54.28;118439.88;5115486;28;20040;-29
2023/03/18 10:22:14;;;;;;;14.30;8.60;;;;;;;-143.48;52.99;118439.88;5097075;28;20390;-29
2023/03/18 10:24:58;;;;;;;16.98;9.10;;;;;;;-143.48;55.11;118439.88;5115882;28;20031;-30
2023/03/18 10:27:53;;;;;;;15.43;9.15;;;;;;;-143.48;52.42;118439.88;5115806;28;20124;-29
2023/03/18 10:30:32;;;;;;;13.80;9.77;;;;;;;-143.48;52.03;118439.88;5115157;28;20100;-29
2023/03/18 10:33:14;;;;;;;13.55;9.32;;;;;;;-143.48;51.67;118439.88;5096905;28;20023;-29
2023/03/18 10:36:03;;;;;;;15.23;8.70;;;;;;;-143.48;52.59;118439.88;5115291;28;20094;-30
2023/03/18 10:38:35;;;;;;;10.60;6.53;;;;;;;-143.48;50.91;118439.88;5115130;28;20107;-30
2023/03/18 10:41:00;;;;;;;8.73;5.65;;;;;;;-143.48;50.26;118439.88;5115931;28;20031;-30
2023/03/18 10:43:29;;;;;;;10.00;6.50;;;;;;;-143.48;50.77;118439.88;5115962;28;20597;-30
2023/03/18 10:46:08;;;;;;;11.13;5.30;;;;;;;-143.48;50.51;118439.88;5114506;28;20043;-29
2023/03/18 10:48:51;;;;;;;9.68;5.55;;;;;;;-143.48;51.37;118439.88;5127785;22;20067;-68
2023/03/18 10:51:23;;;;;;;;;;;;;;;-143.48;50.77;118439.88;5098775;28;20063;-68
2023/03/18 10:54:16;;;;;;;9.13;4.97;;;;;;;-143.48;50.58;118439.88;5099475;28;19942;-69
2023/03/18 10:56:42;;;;;;;;;;;;;;;-143.48;51.14;118439.88;5130584;28;20092;-69
2023/03/18 10:59:11;;;;;;;7.70;5.00;;;;;;;-143.48;51.62;118439.88;5107414;28;19912;-69
2023/03/18 11:01:38;;;;;;;10.93;5.18;;;;;;;-143.48;51.66;118439.88;5097772;28;20474;-68